Country
Station

 

Weather  for  Anderson, Anderson County Airport  -  United States    United States

  
24 °C (75 °F)
    
 
 

Current METAR for Anderson, Anderson County Airport is :

KAND 021156Z AUTO VRB04KT 10SM BKN100 24/21 A2991 RMK AO2 SLP119 T02440211 10244 20211 51013

 

This is a report for Anderson, Anderson County Airport - United States.
 
The report was made 40 minutes ago, at 11:56 UTC .
The wind was blowing at a speed of 2.1 meters per second (4.6 miles per hour) from variable directions.
 
The temperature was 24 °C (75 °F), with a dew-point at 21 °C (70 °F).
The temperature felt like 24 °C (75 °F).
 
The atmospheric pressure was 1013 hPa (29.91 inHg).
The relative humidity was 83.3%.
 
There were broken clouds at a height of 3048 meters (10000 feet).
 
The overall visibility was 16.1 kilometers (10.0 miles).
 

 
 
 
 

Country :   A   B   C   D   E   F   G   H   I   J   K   L   M   N   O   P   Q   R   S   T   U   V   W   Y   Z

 

Site Info  |  Disclaimer  |  Credits  |  Privacy
Contact us  |  Add to favorites
© 2013-2020 METARs - All rights reserved